Saint Barthelemy, St. Barthelemy

4:53 AM AST on November 26, 2014 (GMT -0400)
Lorient | Change Station
CLOSE
Current Station
Personal Weather Station
Location: Saint Barthélémy,
Elevation: 33 ft
Nearby Weather Stations

Elev 33 ft 17.91 °N, 62.82 °W | Updated 11 minutes ago

Partly Cloudy
Partly Cloudy
80.4 °F
Feels Like 85 °F
N
3.0
Wind Variable Wind from ENE
Gusts 17.0 mph

Today
High -- | Low -- °F
--% Chance of Precip.
Yesterday
High -- | Low -- °F
Precip. -- in
6:23 AM 5:34 PM
Waxing Crescent, 18% visible
Pressure 29.95 in
Visibility 6.2 miles
Clouds Few 2000 ft
Heat Index 85 °F
Dew Point 73 °F
Humidity 77%
Rainfall 0.00 in
Snow Depth Not available.
UV 0 out of 12
Pollen Not available.
Air Quality Not available.
Flu Activity Not available.
METAR TNCM 260800Z 09013KT 060V120 9999 FEW020 27/21 Q1014 A2994

More Conditions Fewer Conditions

Pressure 29.95 in
Visibility 6.2 miles
Clouds Few 2000 ft
Heat Index 85 °F
Dew Point 73 °F
Humidity 77%
Rainfall 0.00 in
Snow Depth Not available.
UV 0 out of 12
Pollen Not available.
Air Quality Not available.
Flu Activity Not available.
METAR TNCM 260800Z 09013KT 060V120 9999 FEW020 27/21 Q1014 A2994

More Conditions Fewer Conditions

10-Day Weather Forecast

Almanac

Astronomy

Nov. 26, 2014 Rise Set
Actual Time
Civil Twilight
Nautical Twilight
Astronomical Twilight
Moon
Length of Visible Light
Length of Day
Tomorrow will be .
, % of the Moon is Illuminated

Today's Extremes

Country Highs Country Lows

Community

WunderPhotos

Upload Photos

1,773,694 photos uploaded!

WunderBlogs® & News

Nearby

Air Quality

  Air Quality AQ Index Pollutant
Not available.

Snow Depth

Station Depth Elevation

Earthquake Activity

City Distance Mag. Time & Date
Minimum magnitude displayed is 2.5.

Coastal Water Temperatures

Place Temperature

Nearby Weather Stations